Terminal Aerodrome Forecast
Issued by NWS Twin Cities, MN

Home | Current Version | Previous Version | Text Only | Print | Product List | Glossary Off
Versions: 1 2 3 4 5 6 7 8 9 10 11 12 13 14 15 16 17 18 19 20 21 22 23 24 25 26

000
FTUS43 KMPX 251732
TAFMSP
TAF
KMSP 251732Z 2518/2624 28022G32KT P6SM OVC025
     FM252100 29020G30KT P6SM BKN035
     FM260100 29015G22KT P6SM SCT035
     FM260600 31013KT P6SM FEW250
     FM261800 32015G22KT P6SM SCT060=

USA.gov is the U.S. government's official web portal to all federal, state and local government web resources and services.